Time;durP1;ratioP1;P1;durP2;ratioP2;P2;SDS_P1;SDS_P2;PMS_P1;PMS_P2;Temp;Humidity;BMP_temperature;BMP_pressure;BME280_temperature;BME280_humidity;BME280_pressure;Samples;Min_cycle;Max_cycle;Signal;HPM_P1;HPM_P2
2023/10/17 00:01:44;;;;;;;17.10;7.47;;;2.80;99.90;;;;;;5090624;28;20119;-79
2023/10/17 00:06:45;;;;;;;16.67;7.47;;;2.70;99.90;;;;;;5091285;28;20059;-79
2023/10/17 00:09:17;;;;;;;15.20;6.97;;;2.60;99.90;;;;;;5090012;28;20111;-80
2023/10/17 00:11:58;;;;;;;15.00;7.22;;;2.60;99.90;;;;;;5091142;28;20024;-80
2023/10/17 00:14:35;;;;;;;15.20;6.47;;;2.50;99.90;;;;;;5090677;28;20074;-80
2023/10/17 00:17:06;;;;;;;15.32;6.80;;;2.50;99.90;;;;;;5091265;28;20037;-80
2023/10/17 00:19:31;;;;;;;13.35;6.10;;;2.50;99.90;;;;;;5090916;28;20062;-81
2023/10/17 00:22:03;;;;;;;17.25;6.93;;;2.50;99.90;;;;;;5090365;28;20815;-79
2023/10/17 00:24:28;;;;;;;16.08;7.07;;;2.50;99.90;;;;;;5090030;28;20107;-80
2023/10/17 00:26:54;;;;;;;16.58;6.97;;;2.40;99.90;;;;;;5088673;28;20433;-78
2023/10/17 00:29:20;;;;;;;13.88;6.88;;;2.30;99.90;;;;;;5088873;28;20499;-80
2023/10/17 00:31:46;;;;;;;14.30;6.30;;;2.30;99.90;;;;;;5090922;28;20081;-80
2023/10/17 00:34:21;;;;;;;13.55;7.05;;;2.30;99.90;;;;;;5089562;28;20137;-80
2023/10/17 00:36:48;;;;;;;14.73;7.03;;;2.30;99.90;;;;;;5090241;28;20101;-80
2023/10/17 00:39:31;;;;;;;13.10;6.50;;;2.30;99.90;;;;;;5089848;28;20101;-79
2023/10/17 00:44:36;;;;;;;13.68;6.45;;;2.40;99.90;;;;;;5090547;28;20066;-79
2023/10/17 00:47:03;;;;;;;14.13;6.82;;;2.40;99.90;;;;;;5089073;28;20035;-80
2023/10/17 00:49:33;;;;;;;15.80;7.15;;;2.50;99.90;;;;;;5089061;28;20024;-80
2023/10/17 00:52:00;;;;;;;15.70;6.72;;;2.40;99.90;;;;;;5089227;28;20126;-79
2023/10/17 00:54:35;;;;;;;14.60;6.45;;;2.40;99.90;;;;;;5090060;28;20040;-80
2023/10/17 00:57:05;;;;;;;13.82;6.40;;;2.40;99.90;;;;;;5087733;28;20016;-80
2023/10/17 00:59:31;;;;;;;16.38;6.90;;;2.40;99.90;;;;;;5089897;28;20031;-80
2023/10/17 01:01:56;;;;;;;14.30;6.85;;;2.40;99.90;;;;;;5087832;28;20036;-79
2023/10/17 01:04:24;;;;;;;13.73;6.55;;;2.10;99.90;;;;;;5089047;28;20032;-80
2023/10/17 01:07:05;;;;;;;17.08;6.90;;;1.90;99.90;;;;;;5089904;28;20064;-80
2023/10/17 01:09:34;;;;;;;12.73;6.05;;;1.80;99.90;;;;;;5088888;28;20028;-80
2023/10/17 01:12:10;;;;;;;16.02;7.63;;;1.70;99.90;;;;;;5087648;28;20024;-78
2023/10/17 01:14:36;;;;;;;13.00;6.32;;;1.70;99.90;;;;;;5088694;28;20059;-79
2023/10/17 01:17:07;;;;;;;13.10;6.22;;;1.70;99.90;;;;;;5088284;28;20108;-80
2023/10/17 01:19:33;;;;;;;14.85;6.35;;;1.60;99.90;;;;;;5102029;28;20063;-78
2023/10/17 01:22:00;;;;;;;15.18;6.45;;;1.60;99.90;;;;;;5109518;28;20063;-77
2023/10/17 01:24:26;;;;;;;14.68;6.53;;;1.70;99.90;;;;;;5110109;28;20030;-80
2023/10/17 01:26:52;;;;;;;12.73;5.75;;;1.70;99.90;;;;;;5109255;28;20028;-80
2023/10/17 01:29:18;;;;;;;13.98;6.28;;;1.70;99.90;;;;;;5109141;28;20418;-79
2023/10/17 01:31:44;;;;;;;15.75;6.63;;;1.60;99.90;;;;;;5091176;28;20020;-79
2023/10/17 01:34:12;;;;;;;16.27;7.28;;;1.50;99.90;;;;;;5108476;28;20047;-79
2023/10/17 01:36:38;;;;;;;13.70;6.13;;;1.50;99.90;;;;;;5090203;28;20031;-79
2023/10/17 01:39:10;;;;;;;14.52;6.13;;;1.60;99.90;;;;;;5108829;28;20032;-79
2023/10/17 01:41:47;;;;;;;14.43;6.97;;;1.60;99.90;;;;;;5125193;27;20646;-79
2023/10/17 01:44:13;;;;;;;13.00;5.68;;;1.60;99.90;;;;;;5109030;28;20026;-80
2023/10/17 01:46:38;;;;;;;14.57;6.35;;;1.60;99.90;;;;;;5108999;28;20020;-79
2023/10/17 01:49:10;;;;;;;15.43;6.38;;;1.50;99.90;;;;;;5107726;28;20042;-79
2023/10/17 01:51:36;;;;;;;14.63;6.22;;;1.60;99.90;;;;;;5108782;28;20478;-79
2023/10/17 01:54:08;;;;;;;13.13;6.18;;;1.60;99.90;;;;;;5108387;28;20069;-79
2023/10/17 01:56:38;;;;;;;13.27;5.38;;;1.70;99.90;;;;;;5108597;28;20016;-79
2023/10/17 01:59:17;;;;;;;10.50;4.82;;;1.90;99.90;;;;;;5107929;28;20061;-80
2023/10/17 02:01:43;;;;;;;12.00;5.88;;;2.00;99.90;;;;;;5105330;28;20032;-80
2023/10/17 02:04:18;;;;;;;13.18;5.80;;;2.00;99.90;;;;;;5108178;28;20178;-79
2023/10/17 02:06:44;;;;;;;14.15;5.95;;;1.80;99.90;;;;;;5109069;28;20126;-80
2023/10/17 02:09:23;;;;;;;14.73;6.40;;;1.60;99.90;;;;;;5107961;28;20107;-79
2023/10/17 02:11:54;;;;;;;13.05;6.63;;;1.60;99.90;;;;;;5098695;28;20448;-80
2023/10/17 02:14:22;;;;;;;;;;;1.60;99.90;;;;;;5108446;28;20298;-79
2023/10/17 02:16:51;;;;;;;13.98;5.93;;;1.60;99.90;;;;;;5092048;28;20233;-79
2023/10/17 02:19:20;;;;;;;12.60;6.15;;;1.50;99.90;;;;;;5107966;28;20136;-80
2023/10/17 02:21:50;;;;;;;14.77;6.20;;;1.40;99.90;;;;;;5108999;28;20028;-79
2023/10/17 02:24:22;;;;;;;14.50;5.90;;;1.30;99.90;;;;;;5108018;28;20034;-79
2023/10/17 02:27:07;;;;;;;15.23;6.43;;;1.20;99.90;;;;;;5108246;28;20107;-80
2023/10/17 02:29:38;;;;;;;14.07;5.95;;;1.30;99.90;;;;;;5108451;28;20028;-78
2023/10/17 02:32:13;;;;;;;15.85;5.82;;;1.30;99.90;;;;;;5107424;28;20130;-79
2023/10/17 02:34:40;;;;;;;13.18;5.47;;;1.30;99.90;;;;;;5093272;28;20059;-79
2023/10/17 02:37:10;;;;;;;15.70;6.03;;;1.40;99.90;;;;;;5107892;28;20019;-78
2023/10/17 02:39:37;;;;;;;12.05;6.07;;;1.40;99.90;;;;;;5090263;28;20123;-79
2023/10/17 02:42:06;;;;;;;13.50;5.80;;;1.40;99.90;;;;;;5107803;28;20027;-78
2023/10/17 02:44:33;;;;;;;13.13;5.72;;;1.40;99.90;;;;;;5108060;28;20069;-78
2023/10/17 02:46:58;;;;;;;13.73;6.25;;;1.40;99.90;;;;;;5108762;28;20039;-80
2023/10/17 02:49:27;;;;;;;13.73;5.70;;;1.40;99.90;;;;;;5108089;28;20842;-80
2023/10/17 02:51:54;;;;;;;14.48;5.47;;;1.40;99.90;;;;;;5109694;28;20023;-79
2023/10/17 02:54:20;;;;;;;14.95;6.05;;;1.30;99.90;;;;;;5108057;28;20015;-79
2023/10/17 02:56:46;;;;;;;11.70;5.35;;;1.30;99.90;;;;;;5090240;28;20035;-77
2023/10/17 02:59:13;;;;;;;13.13;5.85;;;1.20;99.90;;;;;;5106925;28;20024;-79
2023/10/17 03:01:44;;;;;;;13.10;5.53;;;1.20;99.90;;;;;;5108354;28;20019;-80
2023/10/17 03:04:13;;;;;;;17.65;6.40;;;1.20;99.90;;;;;;5085714;28;20023;-80
2023/10/17 03:06:41;;;;;;;11.00;5.53;;;1.10;99.90;;;;;;5089291;28;20447;-79
2023/10/17 03:09:37;;;;;;;13.05;5.93;;;1.00;99.90;;;;;;5107216;28;20027;-78
2023/10/17 03:14:40;;;;;;;12.15;5.70;;;0.90;99.90;;;;;;5106251;28;20437;-79
2023/10/17 03:17:10;;;;;;;12.13;5.57;;;0.90;99.90;;;;;;5088824;28;20048;-78
2023/10/17 03:19:37;;;;;;;12.00;5.83;;;1.00;99.90;;;;;;5107947;28;20145;-79
2023/10/17 03:22:24;;;;;;;12.88;5.30;;;1.00;99.90;;;;;;5107915;28;20741;-79
2023/10/17 03:24:51;;;;;;;13.23;5.72;;;1.00;99.90;;;;;;5090089;28;20115;-80
2023/10/17 03:27:35;;;;;;;13.27;5.47;;;1.10;99.90;;;;;;5106908;28;20511;-80
2023/10/17 03:30:10;;;;;;;13.35;5.95;;;1.10;99.90;;;;;;5107974;28;20111;-80
2023/10/17 03:32:52;;;;;;;17.45;7.53;;;1.10;99.90;;;;;;5108632;28;20073;-80
2023/10/17 03:35:21;;;;;;;15.85;6.60;;;1.10;99.90;;;;;;5106140;28;20026;-79
2023/10/17 03:37:47;;;;;;;10.90;5.63;;;1.00;99.90;;;;;;5113621;28;20098;-78
2023/10/17 03:40:16;;;;;;;13.10;6.00;;;1.00;99.90;;;;;;5102329;28;20123;-80
2023/10/17 03:42:54;;;;;;;15.38;5.82;;;0.90;99.90;;;;;;5111612;28;20463;-79
2023/10/17 03:47:59;;;;;;;13.07;6.65;;;0.90;99.90;;;;;;5111936;28;20053;-80
2023/10/17 03:50:31;;;;;;;12.25;6.03;;;0.90;99.90;;;;;;5110831;27;20046;-79
2023/10/17 03:53:07;;;;;;;15.90;6.78;;;0.90;99.90;;;;;;5110494;28;20023;-76
2023/10/17 03:55:35;;;;;;;15.13;6.57;;;1.00;99.90;;;;;;5108224;27;20026;-78
2023/10/17 03:58:04;;;;;;;19.08;7.38;;;0.90;99.90;;;;;;5075638;27;20020;-75
2023/10/17 04:00:41;;;;;;;13.93;6.40;;;1.00;99.90;;;;;;5116710;27;20039;-81
2023/10/17 04:03:13;;;;;;;15.60;6.93;;;1.10;99.90;;;;;;5101415;27;20078;-78
2023/10/17 04:05:39;;;;;;;20.25;10.02;;;1.10;99.90;;;;;;5092070;28;20081;-79
2023/10/17 04:08:05;;;;;;;20.33;9.70;;;1.20;99.90;;;;;;5115436;27;20023;-77
2023/10/17 04:10:47;;;;;;;19.08;9.52;;;1.20;99.90;;;;;;5098352;28;20076;-77
2023/10/17 04:13:18;;;;;;;14.57;7.15;;;1.20;99.90;;;;;;5128712;27;20034;-76
2023/10/17 04:15:44;;;;;;;16.45;7.60;;;1.30;99.90;;;;;;5113715;27;20087;-79
2023/10/17 04:18:11;;;;;;;15.80;6.35;;;1.30;99.90;;;;;;5117825;27;20043;-79
2023/10/17 04:20:38;;;;;;;14.43;6.28;;;1.40;99.90;;;;;;5111303;28;20060;-80
2023/10/17 04:23:05;;;;;;;12.15;5.93;;;1.30;99.90;;;;;;5109910;28;20507;-81
2023/10/17 04:27:59;;;;;;;16.67;6.72;;;1.30;99.90;;;;;;5116058;27;20067;-79
2023/10/17 04:30:35;;;;;;;14.65;7.25;;;1.30;99.90;;;;;;5119756;27;20364;-77
2023/10/17 04:33:13;;;;;;;17.35;6.50;;;1.30;99.90;;;;;;5115587;27;20026;-77
2023/10/17 04:35:48;;;;;;;13.32;6.10;;;1.30;99.90;;;;;;5092977;28;20032;-80
2023/10/17 04:40:50;;;;;;;13.27;5.47;;;1.10;99.90;;;;;;5108621;28;20030;-79
2023/10/17 04:46:01;;;;;;;15.73;6.78;;;1.20;99.90;;;;;;5098697;28;20025;-78
2023/10/17 04:48:35;;;;;;;13.35;6.53;;;1.30;99.90;;;;;;5108446;28;20035;-82
2023/10/17 04:53:48;;;;;;;15.82;7.82;;;1.50;99.90;;;;;;5097410;28;20159;-78
2023/10/17 04:56:22;;;;;;;15.93;7.57;;;1.50;99.90;;;;;;5088934;28;20085;-77
2023/10/17 05:04:33;;;;;;;14.88;6.70;;;1.50;99.90;;;;;;5023938;28;20429;-79
2023/10/17 06:17:43;;;;;;;22.75;9.45;;;3.10;99.90;;;;;;5105691;28;20096;-78
2023/10/17 06:20:12;;;;;;;20.13;8.93;;;3.20;99.90;;;;;;5084102;28;20084;-78
2023/10/17 06:23:23;;;;;;;22.73;9.45;;;3.30;99.90;;;;;;5089325;28;20028;-79
2023/10/17 06:28:29;;;;;;;23.30;9.80;;;3.40;99.90;;;;;;5107367;28;20088;-76
2023/10/17 06:33:39;;;;;;;20.70;9.23;;;3.50;99.90;;;;;;5105851;28;20043;-78
2023/10/17 06:36:20;;;;;;;28.88;10.02;;;3.50;99.90;;;;;;5082700;28;20024;-78
2023/10/17 06:38:48;;;;;;;19.73;9.05;;;3.40;99.90;;;;;;5103768;28;22409;-77
2023/10/17 06:41:16;;;;;;;20.48;9.27;;;3.30;99.90;;;;;;5099247;28;20090;-83
2023/10/17 06:43:46;;;;;;;19.27;8.57;;;3.30;99.90;;;;;;5088268;28;20026;-77
2023/10/17 06:46:14;;;;;;;24.00;9.35;;;3.30;99.90;;;;;;5099563;28;20069;-75
2023/10/17 06:48:49;;;;;;;23.13;10.02;;;3.30;99.90;;;;;;5105406;28;20474;-76
2023/10/17 06:53:47;;;;;;;23.60;10.10;;;3.50;99.90;;;;;;5105956;28;20027;-76
2023/10/17 06:56:13;;;;;;;22.40;10.15;;;3.60;99.90;;;;;;5082595;28;20020;-77
2023/10/17 06:58:39;;;;;;;22.30;9.52;;;3.70;99.90;;;;;;5101048;28;20713;-80
2023/10/17 07:01:05;;;;;;;24.73;10.32;;;3.80;99.90;;;;;;5104845;28;20068;-77
2023/10/17 07:03:37;;;;;;;24.48;11.10;;;3.90;99.90;;;;;;5101153;28;20035;-76
2023/10/17 07:06:11;;;;;;;24.15;10.18;;;4.00;99.90;;;;;;5086408;28;20030;-73
2023/10/17 07:08:41;;;;;;;27.35;10.82;;;4.00;99.90;;;;;;5102687;28;20161;-76
2023/10/17 07:11:09;;;;;;;27.75;11.75;;;4.10;99.90;;;;;;5089642;28;20061;-76
2023/10/17 07:14:22;;;;;;;24.75;10.70;;;4.10;99.90;;;;;;5107702;27;20055;-78
2023/10/17 07:16:42;;;;;;;25.10;11.27;;;4.10;99.90;;;;;;5099958;27;20114;-78
2023/10/17 07:24:28;;;;;;;21.13;10.02;;;4.20;99.90;;;;;;5096647;28;20028;-72
2023/10/17 07:26:55;;;;;;;28.10;11.52;;;4.20;99.90;;;;;;5113551;28;20405;-77
2023/10/17 07:29:22;;;;;;;27.35;12.30;;;4.30;99.90;;;;;;5086654;28;20380;-74
2023/10/17 07:31:53;;;;;;;26.80;10.80;;;4.30;99.90;;;;;;5115043;27;20035;-74
2023/10/17 07:34:23;;;;;;;25.23;10.77;;;4.40;99.90;;;;;;5093472;27;20081;-74
2023/10/17 07:36:55;;;;;;;28.33;11.40;;;4.40;99.90;;;;;;5108142;27;20023;-76
2023/10/17 07:39:36;;;;;;;24.45;10.88;;;4.30;99.90;;;;;;5104772;27;20039;-76
2023/10/17 07:42:14;;;;;;;27.50;11.65;;;4.30;99.90;;;;;;5110811;28;20041;-80
2023/10/17 07:44:41;;;;;;;29.40;11.73;;;4.40;99.90;;;;;;5106765;28;20028;-76
2023/10/17 07:49:43;;;;;;;29.40;12.30;;;4.50;99.90;;;;;;5106838;28;20059;-73
2023/10/17 07:52:12;;;;;;;31.52;12.48;;;4.60;99.90;;;;;;5110480;28;20042;-74
2023/10/17 07:54:45;;;;;;;29.15;12.70;;;4.70;99.90;;;;;;5101635;27;20141;-74
2023/10/17 07:57:23;;;;;;;35.13;13.73;;;4.70;99.90;;;;;;5106006;27;20024;-78
2023/10/17 07:59:52;;;;;;;30.00;12.82;;;4.80;99.90;;;;;;5111206;27;20466;-76
2023/10/17 08:02:20;;;;;;;32.50;14.13;;;4.90;99.90;;;;;;5107586;28;20544;-78
2023/10/17 08:04:49;;;;;;;32.97;12.95;;;5.00;99.90;;;;;;5107836;28;20088;-76
2023/10/17 08:07:16;;;;;;;28.83;12.73;;;5.00;99.90;;;;;;5107745;28;20076;-77
2023/10/17 08:09:50;;;;;;;30.73;13.15;;;5.10;99.90;;;;;;5105140;27;20262;-75
2023/10/17 08:12:22;;;;;;;35.10;14.35;;;5.10;99.90;;;;;;5110167;28;20047;-80
2023/10/17 08:14:57;;;;;;;32.15;13.70;;;5.20;99.90;;;;;;5109931;28;20099;-77
2023/10/17 08:17:27;;;;;;;34.63;14.07;;;5.30;99.90;;;;;;5080654;28;20051;-79
2023/10/17 08:22:27;;;;;;;32.03;13.52;;;5.40;99.90;;;;;;5108191;27;20023;-77
2023/10/17 08:24:53;;;;;;;30.85;13.57;;;5.50;99.90;;;;;;5109013;28;20027;-74
2023/10/17 08:29:49;;;;;;;31.38;14.15;;;5.70;99.90;;;;;;5109942;28;20164;-75
2023/10/17 08:34:59;;;;;;;32.40;13.98;;;5.80;99.90;;;;;;5108896;28;20081;-74
2023/10/17 08:37:39;;;;;;;44.08;18.88;;;5.90;99.90;;;;;;5109014;28;20019;-75
2023/10/17 08:40:29;;;;;;;31.73;14.40;;;6.00;99.90;;;;;;5103715;27;20081;-76
2023/10/17 08:42:52;;;;;;;34.42;15.25;;;6.10;99.90;;;;;;5109180;27;20024;-74
2023/10/17 08:45:19;;;;;;;49.83;21.23;;;6.20;99.90;;;;;;5110505;28;20027;-74
2023/10/17 08:47:46;;;;;;;71.43;29.25;;;6.30;99.90;;;;;;5100902;27;20475;-72
2023/10/17 08:50:15;;;;;;;48.95;22.13;;;6.40;99.90;;;;;;5109862;28;20732;-74
2023/10/17 08:52:44;;;;;;;42.40;17.92;;;6.40;99.90;;;;;;5108215;28;20038;-74
2023/10/17 08:55:15;;;;;;;27.73;12.90;;;6.40;99.90;;;;;;5109965;28;20016;-74
2023/10/17 08:57:41;;;;;;;34.05;15.88;;;6.40;99.90;;;;;;5108684;28;20363;-77
2023/10/17 09:02:40;;;;;;;37.70;15.00;;;6.60;99.90;;;;;;5106760;27;20027;-77
2023/10/17 09:05:25;;;;;;;31.20;14.98;;;6.70;99.90;;;;;;5108493;28;20043;-72
2023/10/17 09:07:55;;;;;;;33.40;15.15;;;6.80;99.90;;;;;;5088895;27;20028;-73
2023/10/17 09:10:38;;;;;;;31.08;15.43;;;6.90;99.90;;;;;;5108783;28;20028;-75
2023/10/17 09:15:48;;;;;;;34.85;14.95;;;7.00;99.90;;;;;;5107450;27;20089;-74
2023/10/17 09:18:14;;;;;;;35.13;15.07;;;7.10;99.90;;;;;;5104299;28;20128;-73
2023/10/17 09:20:41;;;;;;;48.83;15.23;;;7.10;99.90;;;;;;5103174;27;20040;-76
2023/10/17 09:23:24;;;;;;;34.08;13.75;;;7.10;99.90;;;;;;5100330;27;20036;-77
2023/10/17 09:26:10;;;;;;;34.88;15.05;;;7.30;99.90;;;;;;5104558;27;20525;-73
2023/10/17 09:28:36;;;;;;;31.40;14.15;;;7.40;99.90;;;;;;5108602;28;20032;-74
2023/10/17 09:31:06;;;;;;;32.88;14.52;;;7.50;99.90;;;;;;5110061;28;20031;-73
2023/10/17 09:33:34;;;;;;;31.73;14.02;;;7.50;99.90;;;;;;5107179;27;20028;-76
2023/10/17 09:36:04;;;;;;;33.40;14.30;;;7.60;99.90;;;;;;5108148;28;20028;-76
2023/10/17 09:38:34;;;;;;;32.90;15.15;;;7.70;99.90;;;;;;5106029;28;20032;-75
2023/10/17 09:41:03;;;;;;;33.65;14.73;;;7.80;99.90;;;;;;5108716;28;20134;-73
2023/10/17 09:43:29;;;;;;;31.33;14.55;;;7.90;99.90;;;;;;5107639;28;20035;-75
2023/10/17 09:46:02;;;;;;;30.05;13.70;;;7.90;99.90;;;;;;5108973;28;20356;-76
2023/10/17 09:48:41;;;;;;;32.25;14.32;;;8.00;99.90;;;;;;5108105;28;20028;-77
2023/10/17 09:51:13;;;;;;;32.75;14.52;;;8.10;99.90;;;;;;5109781;28;20031;-76
2023/10/17 09:53:40;;;;;;;32.35;13.68;;;8.20;99.90;;;;;;5108988;28;20075;-75
2023/10/17 09:56:16;;;;;;;29.13;14.07;;;8.30;99.90;;;;;;5108707;27;20020;-75
2023/10/17 09:58:46;;;;;;;29.25;13.52;;;8.30;99.90;;;;;;5107043;28;20043;-75
2023/10/17 10:01:14;;;;;;;29.55;13.45;;;8.40;99.90;;;;;;5105649;28;20028;-74
2023/10/17 10:03:41;;;;;;;27.73;12.77;;;8.60;99.90;;;;;;5122067;27;20027;-73
2023/10/17 10:06:25;;;;;;;31.23;14.45;;;8.70;99.90;;;;;;5107954;28;20028;-74
2023/10/17 10:09:13;;;;;;;29.88;12.80;;;8.80;99.90;;;;;;5088669;28;20027;-77
2023/10/17 10:11:51;;;;;;;29.48;11.90;;;8.80;99.90;;;;;;5092175;28;20024;-75
2023/10/17 10:14:26;;;;;;;29.13;12.98;;;8.80;99.90;;;;;;5122442;27;20088;-74
2023/10/17 10:17:14;;;;;;;28.88;12.68;;;8.80;99.90;;;;;;5108177;28;20020;-74
2023/10/17 10:19:43;;;;;;;28.63;13.60;;;8.80;99.90;;;;;;5102714;28;20019;-75
2023/10/17 10:22:16;;;;;;;27.63;12.10;;;8.70;99.90;;;;;;5083932;28;20383;-75
2023/10/17 10:24:45;;;;;;;26.30;12.10;;;8.70;99.90;;;;;;5103975;28;20031;-74
2023/10/17 10:27:11;;;;;;;26.58;12.65;;;8.80;99.90;;;;;;5106489;28;20057;-74
2023/10/17 10:29:40;;;;;;;26.08;12.23;;;8.80;99.90;;;;;;5108284;28;20023;-73
2023/10/17 10:32:06;;;;;;;26.23;12.63;;;8.80;99.90;;;;;;5108396;28;20083;-77
2023/10/17 10:34:35;;;;;;;23.80;11.60;;;8.80;99.90;;;;;;5106400;28;20032;-74
2023/10/17 10:37:03;;;;;;;25.50;11.68;;;8.80;99.90;;;;;;5104657;28;20019;-76
2023/10/17 10:39:30;;;;;;;26.00;11.70;;;8.80;99.90;;;;;;5104674;28;20496;-75
2023/10/17 10:42:01;;;;;;;23.45;11.70;;;8.80;99.90;;;;;;5107944;28;20080;-75
2023/10/17 10:44:26;;;;;;;;;;;9.00;99.90;;;;;;5107534;28;20110;-78
2023/10/17 10:46:53;;;;;;;23.15;10.00;;;9.10;99.90;;;;;;5109382;28;20418;-76
2023/10/17 10:49:28;;;;;;;25.67;11.27;;;9.20;99.90;;;;;;5111985;28;20040;-78
2023/10/17 10:51:57;;;;;;;24.60;11.50;;;9.20;99.90;;;;;;5112026;28;20111;-77
2023/10/17 10:54:44;;;;;;;23.02;10.63;;;9.30;99.90;;;;;;5111487;27;20039;-75
2023/10/17 10:57:09;;;;;;;19.38;10.35;;;9.40;99.90;;;;;;5098542;28;20104;-77
2023/10/17 10:59:35;;;;;;;26.77;12.13;;;9.50;99.90;;;;;;5111159;28;20676;-78
2023/10/17 11:02:01;;;;;;;22.63;11.07;;;9.70;99.90;;;;;;5128187;27;20031;-75
2023/10/17 11:04:26;;;;;;;19.80;9.70;;;9.60;99.90;;;;;;5111257;27;20028;-74
2023/10/17 11:06:52;;;;;;;24.08;10.98;;;9.60;99.90;;;;;;5109763;28;20681;-75
2023/10/17 11:09:24;;;;;;;20.15;10.00;;;9.60;99.90;;;;;;5112256;28;20035;-75
2023/10/17 11:11:50;;;;;;;19.13;9.68;;;9.60;99.90;;;;;;5110030;27;20502;-77
2023/10/17 11:14:19;;;;;;;19.70;9.35;;;9.70;99.90;;;;;;5111094;28;20019;-78
2023/10/17 11:16:50;;;;;;;20.45;9.60;;;9.80;99.90;;;;;;5106655;28;20073;-74
2023/10/17 11:19:22;;;;;;;18.50;9.88;;;9.80;99.90;;;;;;5112474;28;20038;-76
2023/10/17 11:21:52;;;;;;;20.98;10.32;;;9.90;99.90;;;;;;5111059;28;20738;-75
2023/10/17 11:24:20;;;;;;;18.73;9.25;;;9.80;99.90;;;;;;5109578;27;20165;-77
2023/10/17 11:26:50;;;;;;;16.52;9.23;;;9.80;99.90;;;;;;5110364;28;20054;-74
2023/10/17 11:29:17;;;;;;;21.70;8.85;;;9.90;99.90;;;;;;5111806;28;20353;-76
2023/10/17 11:31:43;;;;;;;20.13;9.60;;;10.00;99.90;;;;;;5110457;27;20054;-75
2023/10/17 11:34:14;;;;;;;17.25;8.93;;;10.00;99.90;;;;;;5106838;27;20456;-76
2023/10/17 11:36:45;;;;;;;15.68;8.55;;;9.90;99.90;;;;;;5110907;27;20034;-75
2023/10/17 11:39:15;;;;;;;;;;;9.90;99.90;;;;;;5110268;27;20036;-75
2023/10/17 11:41:54;;;;;;;18.38;8.35;;;9.90;99.90;;;;;;5109690;28;19915;-75
2023/10/17 11:44:31;;;;;;;16.73;8.95;;;9.90;99.90;;;;;;5112313;28;20028;-76
2023/10/17 11:47:03;;;;;;;17.42;9.25;;;9.90;99.90;;;;;;5110631;27;20023;-72
2023/10/17 11:49:35;;;;;;;18.02;9.02;;;9.90;99.90;;;;;;5112207;28;20417;-78
2023/10/17 11:52:09;;;;;;;17.70;8.85;;;9.80;99.90;;;;;;5109165;27;20020;-74
2023/10/17 11:55:00;;;;;;;17.48;8.38;;;9.90;99.90;;;;;;5109552;27;20015;-76
2023/10/17 11:57:28;;;;;;;19.13;8.77;;;10.00;99.90;;;;;;5084965;28;20039;-78
2023/10/17 12:00:19;;;;;;;15.70;8.95;;;9.90;99.90;;;;;;5109089;28;20108;-76
2023/10/17 12:02:48;;;;;;;19.67;9.18;;;10.00;99.90;;;;;;5109325;28;20034;-75
2023/10/17 12:05:18;;;;;;;19.55;9.00;;;10.00;99.90;;;;;;5110918;28;20024;-76
2023/10/17 12:07:59;;;;;;;20.60;8.98;;;10.10;99.90;;;;;;5109888;27;20538;-77
2023/10/17 12:10:26;;;;;;;23.08;10.32;;;10.20;99.90;;;;;;5108737;27;20158;-77
2023/10/17 12:12:52;;;;;;;27.33;11.65;;;10.20;99.90;;;;;;5109375;28;20078;-75
2023/10/17 12:15:20;;;;;;;37.30;13.88;;;10.10;99.90;;;;;;5110897;28;20027;-74
2023/10/17 12:17:48;;;;;;;20.35;9.77;;;10.20;99.90;;;;;;5109803;27;20094;-75
2023/10/17 12:20:16;;;;;;;22.70;9.68;;;10.20;99.90;;;;;;5126287;27;20035;-73
2023/10/17 12:22:42;;;;;;;20.83;10.40;;;10.20;99.90;;;;;;5113743;27;20475;-75
2023/10/17 12:25:16;;;;;;;18.92;9.65;;;10.30;99.90;;;;;;5083065;28;20031;-77
2023/10/17 12:27:41;;;;;;;17.00;8.95;;;10.20;99.90;;;;;;5090052;28;20068;-75
2023/10/17 12:30:11;;;;;;;14.90;8.30;;;10.20;99.90;;;;;;5110305;27;20027;-77
2023/10/17 12:32:36;;;;;;;17.65;8.25;;;10.20;99.90;;;;;;5110360;28;20023;-73
2023/10/17 12:35:05;;;;;;;20.38;8.90;;;10.20;99.90;;;;;;5108363;27;20030;-76
2023/10/17 12:37:43;;;;;;;13.77;7.70;;;10.20;99.90;;;;;;5111096;28;20016;-76
2023/10/17 12:40:18;;;;;;;13.80;7.60;;;10.30;99.90;;;;;;5102335;27;20364;-77
2023/10/17 12:42:46;;;;;;;24.80;9.23;;;10.40;99.90;;;;;;5108718;27;20114;-77
2023/10/17 12:45:14;;;;;;;18.10;8.00;;;10.50;99.90;;;;;;5110874;28;20032;-75
2023/10/17 12:47:41;;;;;;;12.35;7.00;;;10.50;99.90;;;;;;5089229;28;20061;-77
2023/10/17 12:50:09;;;;;;;16.13;7.72;;;10.60;99.90;;;;;;5109323;27;20039;-76
2023/10/17 12:52:34;;;;;;;15.50;7.85;;;10.70;99.90;;;;;;5107692;28;20108;-75
2023/10/17 12:55:00;;;;;;;17.27;8.95;;;10.90;99.90;;;;;;5106421;27;20078;-75
2023/10/17 12:57:25;;;;;;;15.93;7.10;;;11.00;99.90;;;;;;5106091;27;20024;-72
2023/10/17 12:59:51;;;;;;;17.95;9.45;;;11.00;99.90;;;;;;5105277;28;20031;-74
2023/10/17 13:02:17;;;;;;;18.20;9.20;;;11.00;99.90;;;;;;5106320;28;20087;-76
2023/10/17 13:04:42;;;;;;;23.10;9.30;;;11.00;99.90;;;;;;5102826;28;20145;-79
2023/10/17 13:07:08;;;;;;;75.97;25.08;;;10.80;99.90;;;;;;5109914;28;20023;-77
2023/10/17 13:09:33;;;;;;;73.05;25.08;;;10.70;99.90;;;;;;5109769;27;20054;-76
2023/10/17 13:12:00;;;;;;;76.85;24.52;;;10.80;99.90;;;;;;5108493;28;20492;-78
2023/10/17 13:14:25;;;;;;;24.27;11.60;;;10.70;99.90;;;;;;5109421;28;20020;-76
2023/10/17 13:16:51;;;;;;;93.70;29.13;;;10.60;99.90;;;;;;5108724;28;20034;-76
2023/10/17 13:19:18;;;;;;;20.60;9.95;;;10.60;99.90;;;;;;5113173;27;20073;-77
2023/10/17 13:21:47;;;;;;;40.78;14.55;;;10.70;99.90;;;;;;5107784;28;20020;-75
2023/10/17 13:24:14;;;;;;;180.25;52.03;;;10.70;99.90;;;;;;5124949;27;20023;-77
2023/10/17 13:26:40;;;;;;;61.47;23.17;;;10.60;99.90;;;;;;5108336;28;20193;-74
2023/10/17 13:29:05;;;;;;;13.95;8.18;;;10.60;99.90;;;;;;5107961;28;20119;-76
2023/10/17 13:31:31;;;;;;;13.85;7.13;;;10.60;99.90;;;;;;5106607;28;20539;-80
2023/10/17 13:33:58;;;;;;;14.15;8.07;;;10.60;99.90;;;;;;5091080;28;20031;-79
2023/10/17 13:36:24;;;;;;;15.65;7.65;;;10.60;99.90;;;;;;5110126;28;20026;-79
2023/10/17 13:38:50;;;;;;;16.95;6.93;;;10.40;99.90;;;;;;5108082;28;20023;-81
2023/10/17 13:41:16;;;;;;;17.00;8.50;;;10.30;99.90;;;;;;5109212;28;20106;-75
2023/10/17 13:43:47;;;;;;;16.48;8.05;;;10.40;99.90;;;;;;5108456;28;20024;-76
2023/10/17 13:46:14;;;;;;;15.98;8.02;;;10.40;99.90;;;;;;5109907;28;20020;-77
2023/10/17 13:48:48;;;;;;;14.35;7.45;;;10.30;99.90;;;;;;5108190;28;20035;-75
2023/10/17 13:51:15;;;;;;;13.55;7.10;;;10.40;99.90;;;;;;5109906;28;20020;-77
2023/10/17 13:53:44;;;;;;;13.27;6.90;;;10.40;99.90;;;;;;5103284;28;20023;-74
2023/10/17 13:56:18;;;;;;;47.72;20.55;;;10.20;99.90;;;;;;5107300;27;20024;-77
2023/10/17 13:58:46;;;;;;;24.23;10.93;;;10.10;99.90;;;;;;5107651;28;20084;-77
2023/10/17 14:01:28;;;;;;;24.10;12.10;;;10.10;99.90;;;;;;5108957;28;20468;-77
2023/10/17 14:03:57;;;;;;;14.55;7.80;;;10.10;99.90;;;;;;5108352;28;20035;-77
2023/10/17 14:06:23;;;;;;;16.20;7.13;;;10.30;99.90;;;;;;5108607;28;20063;-76
2023/10/17 14:08:50;;;;;;;12.63;7.45;;;10.30;99.90;;;;;;5107503;28;20086;-76
2023/10/17 14:11:19;;;;;;;19.65;7.60;;;10.20;99.90;;;;;;5113833;27;20068;-77
2023/10/17 14:13:50;;;;;;;15.63;8.13;;;10.20;99.90;;;;;;5110567;27;20027;-77
2023/10/17 14:16:22;;;;;;;13.18;7.07;;;10.10;99.90;;;;;;5129964;27;20015;-75
2023/10/17 14:18:52;;;;;;;15.63;7.13;;;10.10;99.90;;;;;;5066768;28;20107;-77
2023/10/17 14:23:57;;;;;;;17.45;7.70;;;10.20;99.90;;;;;;5086842;28;20024;-76
2023/10/17 14:26:27;;;;;;;28.00;11.10;;;10.20;99.90;;;;;;5088629;28;20032;-75
2023/10/17 14:28:58;;;;;;;15.93;9.05;;;10.20;99.90;;;;;;5087687;28;20376;-80
2023/10/17 14:31:26;;;;;;;18.27;7.40;;;10.30;99.90;;;;;;5086200;28;20047;-76
2023/10/17 14:33:52;;;;;;;14.75;6.28;;;10.40;99.90;;;;;;5080190;28;20065;-75
2023/10/17 14:36:18;;;;;;;14.18;7.30;;;10.50;99.90;;;;;;5082747;28;20032;-75
2023/10/17 14:38:44;;;;;;;12.18;5.30;;;10.60;99.90;;;;;;5083014;28;20029;-75
2023/10/17 14:41:11;;;;;;;14.10;6.10;;;10.70;99.90;;;;;;5081228;28;20036;-79
2023/10/17 14:43:39;;;;;;;12.88;5.88;;;10.70;99.90;;;;;;5086056;28;20031;-79
2023/10/17 14:46:06;;;;;;;16.05;6.18;;;10.80;99.90;;;;;;5086349;28;20013;-77
2023/10/17 14:48:32;;;;;;;12.88;5.65;;;10.70;99.90;;;;;;5088006;28;20067;-75
2023/10/17 14:51:01;;;;;;;17.27;5.88;;;10.70;99.90;;;;;;5087575;28;20052;-78
2023/10/17 14:53:26;;;;;;;20.60;7.95;;;10.50;99.90;;;;;;5088957;28;20024;-78
2023/10/17 14:55:57;;;;;;;22.05;8.05;;;10.40;99.90;;;;;;5087053;28;20050;-77
2023/10/17 14:58:23;;;;;;;20.75;9.85;;;10.40;99.90;;;;;;5087035;28;20080;-78
2023/10/17 15:00:49;;;;;;;24.60;7.95;;;10.50;99.90;;;;;;5087434;28;20472;-77
2023/10/17 15:03:14;;;;;;;10.85;6.50;;;10.70;99.90;;;;;;5088496;28;20063;-77
2023/10/17 15:05:40;;;;;;;12.32;6.13;;;10.70;99.90;;;;;;5085080;28;20030;-78